createdAt,value
2018-04-02T00:02:01.404Z,7.90
2018-04-02T00:04:28.920Z,7.80
2018-04-02T00:06:56.451Z,8.03
2018-04-02T00:09:24.722Z,8.47
2018-04-02T00:11:53.019Z,8.77
2018-04-02T00:14:21.314Z,8.70
2018-04-02T00:16:48.819Z,8.97
2018-04-02T00:19:16.310Z,8.43
2018-04-02T00:21:44.646Z,8.80
2018-04-02T00:24:12.165Z,9.07
2018-04-02T00:26:40.438Z,8.37
2018-04-02T00:29:08.774Z,9.57
2018-04-02T00:31:36.288Z,8.83
2018-04-02T00:34:04.569Z,9.30
2018-04-02T00:36:32.875Z,9.00
2018-04-02T00:39:00.393Z,9.03
2018-04-02T00:41:27.966Z,9.57
2018-04-02T00:43:56.286Z,9.70
2018-04-02T00:46:23.786Z,9.60
2018-04-02T00:48:51.316Z,10.27
2018-04-02T00:51:18.870Z,10.43
2018-04-02T00:53:46.555Z,11.07
2018-04-02T00:56:14.089Z,10.93
2018-04-02T00:58:42.395Z,11.13
2018-04-02T01:01:09.925Z,11.43
2018-04-02T01:03:38.227Z,11.80
2018-04-02T01:06:05.762Z,10.67
2018-04-02T01:08:34.034Z,10.90
2018-04-02T01:11:03.094Z,12.17
2018-04-02T01:13:30.623Z,11.20
2018-04-02T01:15:58.899Z,11.90
2018-04-02T01:18:27.209Z,12.80
2018-04-02T01:20:54.727Z,12.20
2018-04-02T01:23:23.002Z,11.77
2018-04-02T01:25:50.535Z,12.20
2018-04-02T01:28:18.063Z,12.37
2018-04-02T01:30:46.370Z,12.17
2018-04-02T01:33:13.886Z,12.67
2018-04-02T01:35:42.928Z,11.73
2018-04-02T01:38:10.451Z,12.23
2018-04-02T01:40:38.749Z,12.57
2018-04-02T01:43:07.084Z,11.40
2018-04-02T01:45:34.591Z,12.03
2018-04-02T01:48:02.870Z,11.77
2018-04-02T01:50:31.197Z,11.37
2018-04-02T01:52:58.734Z,12.90
2018-04-02T01:55:26.363Z,12.13
2018-04-02T01:57:55.423Z,12.00
2018-04-02T02:00:22.932Z,12.80
2018-04-02T02:02:51.219Z,12.73
2018-04-02T02:05:18.767Z,11.87
2018-04-02T02:07:46.277Z,11.60
2018-04-02T02:10:13.790Z,13.10
2018-04-02T02:12:41.356Z,11.73
2018-04-02T02:15:08.875Z,11.87
2018-04-02T02:17:37.186Z,13.57
2018-04-02T02:20:04.710Z,13.20
2018-04-02T02:22:32.271Z,12.33
2018-04-02T02:25:00.575Z,11.87
2018-04-02T02:27:28.102Z,12.00
2018-04-02T02:29:56.379Z,12.00
2018-04-02T02:32:24.657Z,12.73
2018-04-02T02:34:52.950Z,13.60
2018-04-02T02:37:21.232Z,12.23
2018-04-02T02:39:49.538Z,13.33
2018-04-02T02:42:17.083Z,13.60
2018-04-02T02:44:44.599Z,13.07
2018-04-02T02:47:12.103Z,14.00
2018-04-02T02:49:40.538Z,14.07
2018-04-02T02:52:08.048Z,14.17
2018-04-02T02:54:36.414Z,14.23
2018-04-02T02:57:04.099Z,14.43
2018-04-02T02:59:32.383Z,13.83
2018-04-02T03:02:00.668Z,14.27
2018-04-02T03:04:28.226Z,15.87
2018-04-02T03:06:56.532Z,15.80
2018-04-02T03:09:24.094Z,15.57
2018-04-02T03:11:51.638Z,16.53
2018-04-02T03:14:19.919Z,16.63
2018-04-02T03:16:48.197Z,16.50
2018-04-02T03:19:16.551Z,17.23
2018-04-02T03:21:44.073Z,17.17
2018-04-02T03:24:11.582Z,17.10
2018-04-02T03:26:39.123Z,15.80
2018-04-02T03:29:06.634Z,16.70
2018-04-02T03:31:34.913Z,15.80
2018-04-02T03:34:03.235Z,16.33
2018-04-02T03:36:30.754Z,14.20
2018-04-02T03:38:59.043Z,17.23
2018-04-02T03:41:27.356Z,15.37
2018-04-02T03:43:54.886Z,14.90
2018-04-02T03:46:22.394Z,15.37
2018-04-02T03:48:49.939Z,16.73
2018-04-02T03:51:17.458Z,15.10
2018-04-02T03:53:44.973Z,15.97
2018-04-02T03:56:12.522Z,15.53
2018-04-02T03:58:40.879Z,15.57
2018-04-02T04:01:09.166Z,15.43
2018-04-02T04:03:37.482Z,16.17
2018-04-02T04:06:05.011Z,16.23
2018-04-02T04:08:33.458Z,14.83
2018-04-02T04:11:00.982Z,14.47
2018-04-02T04:13:29.257Z,15.13
2018-04-02T04:15:57.694Z,15.40
2018-04-02T04:18:25.252Z,15.20
2018-04-02T04:20:52.782Z,15.03
2018-04-02T04:23:20.323Z,16.30
2018-04-02T04:25:48.642Z,16.23
2018-04-02T04:28:16.146Z,15.40
2018-04-02T04:30:43.692Z,16.07
2018-04-02T04:33:11.214Z,15.63
2018-04-02T04:35:39.498Z,16.10
2018-04-02T04:38:07.775Z,17.47
2018-04-02T04:40:36.183Z,16.73
2018-04-02T04:43:03.720Z,15.50
2018-04-02T04:45:32.025Z,14.57
2018-04-02T04:47:59.552Z,14.30
2018-04-02T04:50:27.827Z,16.63
2018-04-02T04:52:56.850Z,15.23
2018-04-02T04:55:25.140Z,14.90
2018-04-02T04:57:52.655Z,13.37
2018-04-02T05:00:20.242Z,15.30
2018-04-02T05:02:48.530Z,12.93
2018-04-02T05:05:16.813Z,13.67
2018-04-02T05:07:44.375Z,13.10
2018-04-02T05:10:12.704Z,14.00
2018-04-02T05:12:41.155Z,12.20
2018-04-02T05:15:08.686Z,14.77
2018-04-02T05:17:36.252Z,13.17
2018-04-02T05:20:05.270Z,13.07
2018-04-02T05:22:32.794Z,13.80
2018-04-02T05:25:00.354Z,13.33
2018-04-02T05:27:27.876Z,12.90
2018-04-02T05:29:56.329Z,12.80
2018-04-02T05:32:23.888Z,13.50
2018-04-02T05:34:51.407Z,13.57
2018-04-02T05:37:18.970Z,14.07
2018-04-02T05:39:46.539Z,13.00
2018-04-02T05:42:14.078Z,13.13
2018-04-02T05:44:42.343Z,12.80
2018-04-02T05:47:10.642Z,12.40
2018-04-02T05:49:38.969Z,13.20
2018-04-02T05:52:06.495Z,12.67
2018-04-02T05:54:34.058Z,13.30
2018-04-02T05:57:01.589Z,13.60
2018-04-02T05:59:29.098Z,13.07
2018-04-02T06:01:56.875Z,12.07
2018-04-02T06:04:24.407Z,12.73
2018-04-02T06:06:51.927Z,12.63
2018-04-02T06:09:19.441Z,12.77
2018-04-02T06:11:47.722Z,12.97
2018-04-02T06:14:15.996Z,12.87
2018-04-02T06:16:44.315Z,12.50
2018-04-02T06:19:11.834Z,11.73
2018-04-02T06:21:40.105Z,12.40
2018-04-02T06:24:13.473Z,12.63
2018-04-02T06:26:42.290Z,12.50
2018-04-02T06:29:09.831Z,12.47
2018-04-02T06:31:37.425Z,12.37
2018-04-02T06:34:05.719Z,12.93
2018-04-02T06:36:34.034Z,12.60
2018-04-02T06:39:01.770Z,12.50
2018-04-02T06:41:29.322Z,12.37
2018-04-02T06:43:56.850Z,13.37
2018-04-02T06:46:24.413Z,12.33
2018-04-02T06:48:52.790Z,12.47
2018-04-02T06:51:20.312Z,11.80
2018-04-02T06:53:48.598Z,11.60
2018-04-02T06:56:16.927Z,12.27
2018-04-02T06:58:45.234Z,12.53
2018-04-02T07:01:13.718Z,12.23
2018-04-02T07:03:41.290Z,11.93
2018-04-02T07:06:08.909Z,12.80
2018-04-02T07:08:36.453Z,12.67
2018-04-02T07:11:04.020Z,12.63
2018-04-02T07:13:32.312Z,12.77
2018-04-02T07:16:01.076Z,12.27
2018-04-02T07:18:28.683Z,11.77
2018-04-02T07:20:56.240Z,13.57
2018-04-02T07:23:23.768Z,12.80
2018-04-02T07:25:52.076Z,13.57
2018-04-02T07:28:19.671Z,13.63
2018-04-02T07:30:47.371Z,13.13
2018-04-02T07:33:14.879Z,12.83
2018-04-02T07:35:42.504Z,12.27
2018-04-02T07:38:11.592Z,13.17
2018-04-02T07:40:39.315Z,12.60
2018-04-02T07:43:06.921Z,12.63
2018-04-02T07:45:34.439Z,11.03
2018-04-02T07:48:01.959Z,11.30
2018-04-02T07:50:31.095Z,12.27
2018-04-02T07:52:59.419Z,12.13
2018-04-02T07:55:26.959Z,10.97
2018-04-02T07:57:54.492Z,12.23
2018-04-02T08:00:22.042Z,12.13
2018-04-02T08:02:49.627Z,11.20
2018-04-02T08:05:17.986Z,12.47
2018-04-02T08:07:47.017Z,10.80
2018-04-02T08:10:14.641Z,11.67
2018-04-02T08:12:42.173Z,11.77
2018-04-02T08:15:09.726Z,11.43
2018-04-02T08:17:37.239Z,12.47
2018-04-02T08:20:04.775Z,12.13
2018-04-02T08:22:32.295Z,11.30
2018-04-02T08:25:00.586Z,11.27
2018-04-02T08:27:28.144Z,11.53
2018-04-02T08:29:56.414Z,12.83
2018-04-02T08:32:24.700Z,12.27
2018-04-02T08:34:52.814Z,11.70
2018-04-02T08:37:20.314Z,11.37
2018-04-02T08:39:49.410Z,11.53
2018-04-02T08:42:17.027Z,13.13
2018-04-02T08:44:45.108Z,11.87
2018-04-02T08:47:12.761Z,11.83
2018-04-02T08:49:40.363Z,11.30
2018-04-02T08:52:07.929Z,12.60
2018-04-02T08:54:35.622Z,12.97
2018-04-02T08:57:04.057Z,11.73
2018-04-02T08:59:32.028Z,10.90
2018-04-02T09:01:59.696Z,10.80
2018-04-02T09:04:27.295Z,10.40
2018-04-02T09:06:54.949Z,10.47
2018-04-02T09:09:22.616Z,9.87
2018-04-02T09:11:50.628Z,9.83
2018-04-02T09:14:18.449Z,9.37
2018-04-02T09:16:47.132Z,10.30
2018-04-02T09:19:14.980Z,9.70
2018-04-02T09:21:42.657Z,9.20
2018-04-02T09:24:10.232Z,9.30
2018-04-02T09:26:37.865Z,7.83
2018-04-02T09:29:06.168Z,7.47
2018-04-02T09:31:34.438Z,7.70
2018-04-02T09:34:02.747Z,7.33
2018-04-02T09:36:30.275Z,7.67
2018-04-02T09:38:58.550Z,8.30
2018-04-02T09:41:26.856Z,7.27
2018-04-02T09:43:55.134Z,8.30
2018-04-02T09:46:23.410Z,7.03
2018-04-02T09:48:51.720Z,6.70
2018-04-02T09:51:19.251Z,8.47
2018-04-02T09:53:46.783Z,10.43
2018-04-02T09:56:15.827Z,7.30
2018-04-02T09:58:46.027Z,7.97
2018-04-02T10:01:14.314Z,7.87
2018-04-02T10:03:48.415Z,7.80
2018-04-02T10:06:15.930Z,7.00
2018-04-02T10:08:43.544Z,7.32
2018-04-02T10:11:11.901Z,7.00
2018-04-02T10:13:39.420Z,6.37
2018-04-02T10:16:07.732Z,6.10
2018-04-02T10:18:35.288Z,6.30
2018-04-02T10:21:02.807Z,6.93
2018-04-02T10:23:31.098Z,6.53
2018-04-02T10:25:59.394Z,6.43
2018-04-02T10:28:27.684Z,6.87
2018-04-02T10:30:55.198Z,6.55
2018-04-02T10:33:22.726Z,6.75
2018-04-02T10:35:50.226Z,6.05
2018-04-02T10:38:17.751Z,7.22
2018-04-02T10:40:45.276Z,6.25
2018-04-02T10:43:12.824Z,6.30
2018-04-02T10:45:40.320Z,5.32
2018-04-02T10:48:07.851Z,5.55
2018-04-02T10:50:35.370Z,5.40
2018-04-02T10:53:02.904Z,5.93
2018-04-02T10:55:31.211Z,5.82
2018-04-02T10:57:58.777Z,5.40
2018-04-02T11:00:26.283Z,4.80
2018-04-02T11:02:53.810Z,5.03
2018-04-02T11:05:21.370Z,5.30
2018-04-02T11:07:48.890Z,5.68
2018-04-02T11:10:16.567Z,4.95
2018-04-02T11:12:44.846Z,5.57
2018-04-02T11:15:12.351Z,5.80
2018-04-02T11:17:40.460Z,4.87
2018-04-02T11:20:07.962Z,4.90
2018-04-02T11:22:36.241Z,4.80
2018-04-02T11:25:04.569Z,5.20
2018-04-02T11:27:32.098Z,5.35
2018-04-02T11:29:59.627Z,4.53
2018-04-02T11:32:27.983Z,4.68
2018-04-02T11:34:55.495Z,3.72
2018-04-02T11:37:23.770Z,5.30
2018-04-02T11:39:52.095Z,4.95
2018-04-02T11:42:19.602Z,5.00
2018-04-02T11:44:48.635Z,5.18
2018-04-02T11:47:16.970Z,4.97
2018-04-02T11:49:44.470Z,4.78
2018-04-02T11:52:12.751Z,4.90
2018-04-02T11:54:41.080Z,5.68
2018-04-02T11:57:08.593Z,5.57
2018-04-02T11:59:36.878Z,5.25
2018-04-02T12:02:05.325Z,5.47
2018-04-02T12:04:32.831Z,5.62
2018-04-02T12:07:01.105Z,5.25
2018-04-02T12:09:29.403Z,5.28
2018-04-02T12:11:56.970Z,5.78
2018-04-02T12:14:24.470Z,5.05
2018-04-02T12:16:52.011Z,5.00
2018-04-02T12:19:19.518Z,5.22
2018-04-02T12:21:47.028Z,5.57
2018-04-02T12:24:14.554Z,5.62
2018-04-02T12:26:42.061Z,6.35
2018-04-02T12:29:09.601Z,5.47
2018-04-02T12:31:37.907Z,5.60
2018-04-02T12:34:05.410Z,6.12
2018-04-02T12:36:32.922Z,6.70
2018-04-02T12:39:00.469Z,5.50
2018-04-02T12:41:28.738Z,5.50
2018-04-02T12:43:57.026Z,5.90
2018-04-02T12:46:25.344Z,5.37
2018-04-02T12:48:52.848Z,5.30
2018-04-02T12:51:20.363Z,4.80
2018-04-02T12:53:47.894Z,4.85
2018-04-02T12:56:16.207Z,4.43
2018-04-02T12:58:43.793Z,4.30
2018-04-02T13:01:11.318Z,5.00
2018-04-02T13:03:39.612Z,4.53
2018-04-02T13:06:07.882Z,4.70
2018-04-02T13:08:36.171Z,4.60
2018-04-02T13:11:04.438Z,4.18
2018-04-02T13:13:32.844Z,4.20
2018-04-02T13:16:00.396Z,4.82
2018-04-02T13:18:28.667Z,4.20
2018-04-02T13:20:56.940Z,3.25
2018-04-02T13:23:24.467Z,3.78
2018-04-02T13:25:51.966Z,3.75
2018-04-02T13:28:19.467Z,3.90
2018-04-02T13:30:47.012Z,3.35
2018-04-02T13:33:15.290Z,3.30
2018-04-02T13:35:43.566Z,3.28
2018-04-02T13:38:11.116Z,3.10
2018-04-02T13:40:38.636Z,3.00
2018-04-02T13:43:06.145Z,3.05
2018-04-02T13:45:33.739Z,3.08
2018-04-02T13:48:02.039Z,2.87
2018-04-02T13:50:29.555Z,3.12
2018-04-02T13:52:58.603Z,3.40
2018-04-02T13:55:26.115Z,3.42
2018-04-02T13:57:54.387Z,3.20
2018-04-02T14:00:21.910Z,3.30
2018-04-02T14:02:49.411Z,4.10
2018-04-02T14:05:20.417Z,3.75
2018-04-02T14:07:48.238Z,3.60
2018-04-02T14:10:16.584Z,3.87
2018-04-02T14:12:44.092Z,3.20
2018-04-02T14:15:11.707Z,3.43
2018-04-02T14:17:39.206Z,3.60
2018-04-02T14:20:06.762Z,3.57
2018-04-02T14:22:34.299Z,4.13
2018-04-02T14:25:01.824Z,4.30
2018-04-02T14:27:30.115Z,4.07
2018-04-02T14:29:57.720Z,3.60
2018-04-02T14:32:25.231Z,3.10
2018-04-02T14:34:53.507Z,3.33
2018-04-02T14:37:21.044Z,3.53
2018-04-02T14:39:48.576Z,3.03
2018-04-02T14:42:16.114Z,3.07
2018-04-02T14:44:44.442Z,2.90
2018-04-02T14:47:11.990Z,2.80
2018-04-02T14:49:39.512Z,3.00
2018-04-02T14:52:07.112Z,3.50
2018-04-02T14:54:34.642Z,3.30
2018-04-02T14:57:02.357Z,3.43
2018-04-02T14:59:29.914Z,3.13
2018-04-02T15:01:57.551Z,3.00
2018-04-02T15:04:25.173Z,3.00
2018-04-02T15:06:52.700Z,2.60
2018-04-02T15:09:20.223Z,2.73
2018-04-02T15:11:47.743Z,3.43
2018-04-02T15:14:15.281Z,3.10
2018-04-02T15:16:43.760Z,3.30
2018-04-02T15:19:12.101Z,3.07
2018-04-02T15:21:39.635Z,2.90
2018-04-02T15:24:07.783Z,2.60
2018-04-02T15:26:38.684Z,2.50
2018-04-02T15:29:06.315Z,2.60
2018-04-02T15:31:33.912Z,2.20
2018-04-02T15:34:01.440Z,2.47
2018-04-02T15:36:28.972Z,2.20
2018-04-02T15:38:56.506Z,2.20
2018-04-02T15:41:24.037Z,1.93
2018-04-02T15:43:51.579Z,1.90
2018-04-02T15:46:19.888Z,2.50
2018-04-02T15:48:47.458Z,2.10
2018-04-02T15:51:15.007Z,2.10
2018-04-02T15:53:42.616Z,2.40
2018-04-02T15:56:10.167Z,1.77
2018-04-02T15:58:37.726Z,2.10
2018-04-02T16:01:05.334Z,2.53
2018-04-02T16:03:32.815Z,2.10
2018-04-02T16:06:01.225Z,2.00
2018-04-02T16:08:28.748Z,2.20
2018-04-02T16:10:57.024Z,2.30
2018-04-02T16:13:24.606Z,2.20
2018-04-02T16:15:52.926Z,2.23
2018-04-02T16:18:20.745Z,2.10
2018-04-02T16:20:49.139Z,2.30
2018-04-02T16:23:17.419Z,2.20
2018-04-02T16:25:45.715Z,1.97
2018-04-02T16:28:14.011Z,2.10
2018-04-02T16:30:41.655Z,1.77
2018-04-02T16:33:09.936Z,1.93
2018-04-02T16:35:38.285Z,2.30
2018-04-02T16:38:05.877Z,1.77
2018-04-02T16:40:34.154Z,2.10
2018-04-02T16:43:02.495Z,3.10
2018-04-02T16:45:30.128Z,5.67
2018-04-02T16:47:57.664Z,2.93
2018-04-02T16:50:25.218Z,3.13
2018-04-02T16:52:52.730Z,2.90
2018-04-02T16:55:20.566Z,3.10
2018-04-02T16:57:48.894Z,2.83
2018-04-02T17:00:16.402Z,3.37
2018-04-02T17:02:44.687Z,2.63
2018-04-02T17:05:12.214Z,2.60
2018-04-02T17:07:39.724Z,2.40
2018-04-02T17:10:08.026Z,2.10
2018-04-02T17:12:35.554Z,2.60
2018-04-02T17:15:03.840Z,3.47
2018-04-02T17:17:32.163Z,2.97
2018-04-02T17:19:59.767Z,2.50
2018-04-02T17:22:27.284Z,2.00
2018-04-02T17:24:54.806Z,2.30
2018-04-02T17:27:22.375Z,2.07
2018-04-02T17:29:49.890Z,2.10
2018-04-02T17:32:17.397Z,2.00
2018-04-02T17:34:46.442Z,2.27
2018-04-02T17:37:13.966Z,2.00
2018-04-02T17:39:42.242Z,2.30
2018-04-02T17:42:10.550Z,2.47
2018-04-02T17:44:38.128Z,3.70
2018-04-02T17:47:05.677Z,25.47
2018-04-02T17:49:33.985Z,9.63
2018-04-02T17:52:01.508Z,5.60
2018-04-02T17:54:29.802Z,3.40
2018-04-02T17:56:58.127Z,3.07
2018-04-02T17:59:25.650Z,3.77
2018-04-02T18:01:53.923Z,3.27
2018-04-02T18:04:21.446Z,3.20
2018-04-02T18:06:49.032Z,3.30
2018-04-02T18:09:16.567Z,3.07
2018-04-02T18:11:44.365Z,3.30
2018-04-02T18:14:11.887Z,3.40
2018-04-02T18:16:39.434Z,2.90
2018-04-02T18:19:06.979Z,2.67
2018-04-02T18:21:35.330Z,2.70
2018-04-02T18:24:03.781Z,3.20
2018-04-02T18:26:31.322Z,2.43
2018-04-02T18:28:58.822Z,2.77
2018-04-02T18:31:26.334Z,2.93
2018-04-02T18:33:53.867Z,2.30
2018-04-02T18:36:21.370Z,2.80
2018-04-02T18:38:49.676Z,2.77
2018-04-02T18:41:17.220Z,3.30
2018-04-02T18:43:45.498Z,2.90
2018-04-02T18:46:13.774Z,3.23
2018-04-02T18:48:41.319Z,3.73
2018-04-02T18:51:08.860Z,3.30
2018-04-02T18:53:36.386Z,3.50
2018-04-02T18:56:03.984Z,3.30
2018-04-02T18:58:31.479Z,3.17
2018-04-02T19:00:58.990Z,3.47
2018-04-02T19:03:26.576Z,3.20
2018-04-02T19:05:54.826Z,3.53
2018-04-02T19:08:23.098Z,4.00
2018-04-02T19:10:51.401Z,4.30
2018-04-02T19:13:18.913Z,3.57
2018-04-02T19:15:46.429Z,3.60
2018-04-02T19:18:13.962Z,4.20
2018-04-02T19:20:42.238Z,3.80
2018-04-02T19:23:09.874Z,4.50
2018-04-02T19:25:37.399Z,4.67
2018-04-02T19:28:04.906Z,4.00
2018-04-02T19:30:32.446Z,4.43
2018-04-02T19:32:59.991Z,4.33
2018-04-02T19:35:27.516Z,4.57
2018-04-02T19:37:55.039Z,5.03
2018-04-02T19:42:50.362Z,4.00
2018-04-02T19:45:17.907Z,4.90
2018-04-02T19:47:46.180Z,4.63
2018-04-02T19:50:14.474Z,5.30
2018-04-02T19:52:42.009Z,5.33
2018-04-02T19:55:10.294Z,5.60
2018-04-02T19:57:37.818Z,5.60
2018-04-02T20:00:05.339Z,5.93
2018-04-02T20:02:33.614Z,5.70
2018-04-02T20:05:01.920Z,5.57
2018-04-02T20:07:29.477Z,5.40
2018-04-02T20:09:57.755Z,5.40
2018-04-02T20:12:25.282Z,5.70
2018-04-02T20:14:53.553Z,5.27
2018-04-02T20:17:21.073Z,5.43
2018-04-02T20:19:48.602Z,5.67
2018-04-02T20:22:16.138Z,5.40
2018-04-02T20:24:43.882Z,5.00
2018-04-02T20:27:11.411Z,5.30
2018-04-02T20:29:39.683Z,5.03
2018-04-02T20:32:07.182Z,4.93
2018-04-02T20:34:34.714Z,5.20
2018-04-02T20:37:02.982Z,5.10
2018-04-02T20:39:31.301Z,5.80
2018-04-02T20:41:59.573Z,5.57
2018-04-02T20:44:27.838Z,5.87
2018-04-02T20:46:56.150Z,5.83
2018-04-02T20:49:23.679Z,5.40
2018-04-02T20:51:51.965Z,5.30
2018-04-02T20:54:20.246Z,5.57
2018-04-02T20:56:48.542Z,5.70
2018-04-02T20:59:16.815Z,5.90
2018-04-02T21:01:45.091Z,5.30
2018-04-02T21:04:13.397Z,5.57
2018-04-02T21:06:40.890Z,5.20
2018-04-02T21:09:08.407Z,5.23
2018-04-02T21:11:36.718Z,5.13
2018-04-02T21:14:04.225Z,5.40
2018-04-02T21:16:32.515Z,6.20
2018-04-02T21:19:00.824Z,5.77
2018-04-02T21:21:29.150Z,5.47
2018-04-02T21:23:56.663Z,5.90
2018-04-02T21:26:25.007Z,6.00
2018-04-02T21:28:52.510Z,6.40
2018-04-02T21:31:20.774Z,5.73
2018-04-02T21:33:49.059Z,5.63
2018-04-02T21:36:16.581Z,5.90
2018-04-02T21:38:44.099Z,5.30
2018-04-02T21:41:12.383Z,5.23
2018-04-02T21:43:40.680Z,4.77
2018-04-02T21:46:08.183Z,5.00
2018-04-02T21:48:36.742Z,5.10
2018-04-02T21:51:04.280Z,5.03
2018-04-02T21:53:32.542Z,5.30
2018-04-02T21:56:00.834Z,5.40
2018-04-02T21:58:29.115Z,5.07
2018-04-02T22:00:57.401Z,4.83
2018-04-02T22:03:25.699Z,4.70
2018-04-02T22:05:53.194Z,4.50
2018-04-02T22:08:20.716Z,4.93
2018-04-02T22:10:49.023Z,4.40
2018-04-02T22:13:16.528Z,4.60
2018-04-02T22:15:44.051Z,4.83
2018-04-02T22:18:11.687Z,4.83
2018-04-02T22:20:39.955Z,4.37
2018-04-02T22:23:08.231Z,4.43
2018-04-02T22:25:35.776Z,4.87
2018-04-02T22:28:03.347Z,4.70
2018-04-02T22:30:30.864Z,4.70
2018-04-02T22:32:58.394Z,4.33
2018-04-02T22:35:26.666Z,4.60
2018-04-02T22:37:54.950Z,4.67
2018-04-02T22:40:23.255Z,4.80
2018-04-02T22:42:52.723Z,4.70
2018-04-02T22:45:20.233Z,4.70
2018-04-02T22:47:47.770Z,4.60
2018-04-02T22:50:16.048Z,4.30
2018-04-02T22:52:43.543Z,4.47
2018-04-02T22:55:11.070Z,5.10
2018-04-02T22:57:38.613Z,4.67
2018-04-02T23:00:06.124Z,4.50
2018-04-02T23:02:33.662Z,4.97
2018-04-02T23:05:01.937Z,4.60
2018-04-02T23:07:30.225Z,4.73
2018-04-02T23:09:58.539Z,4.70
2018-04-02T23:12:26.067Z,4.60
2018-04-02T23:14:54.447Z,4.90
2018-04-02T23:17:22.742Z,5.03
2018-04-02T23:19:50.286Z,5.07
2018-04-02T23:22:29.751Z,4.93
2018-04-02T23:24:58.025Z,5.17
2018-04-02T23:27:26.297Z,4.93
2018-04-02T23:29:54.711Z,5.00
2018-04-02T23:32:22.238Z,5.33
2018-04-02T23:34:49.757Z,4.57
2018-04-02T23:37:17.278Z,5.27
2018-04-02T23:39:45.599Z,5.40
2018-04-02T23:42:13.111Z,5.10
2018-04-02T23:44:40.651Z,4.90
2018-04-02T23:47:08.193Z,5.10
2018-04-02T23:49:35.696Z,4.80
2018-04-02T23:52:03.226Z,4.50
2018-04-02T23:54:30.762Z,4.80
2018-04-02T23:56:59.043Z,5.10
2018-04-02T23:59:27.340Z,4.70
